createdAt,value
2018-07-25T00:00:59.348Z,97110.78
2018-07-25T00:03:28.076Z,97113.94
2018-07-25T00:05:56.944Z,97106.84
2018-07-25T00:08:26.435Z,97103.67
2018-07-25T00:10:55.952Z,97105.70
2018-07-25T00:13:26.175Z,97114.03
2018-07-25T00:15:55.488Z,97109.12
2018-07-25T00:18:24.150Z,97109.34
2018-07-25T00:20:53.981Z,97103.87
2018-07-25T00:23:22.859Z,97108.55
2018-07-25T00:25:51.978Z,97113.20
2018-07-25T00:28:20.827Z,97116.45
2018-07-25T00:30:49.874Z,97106.44
2018-07-25T00:33:18.648Z,97106.88
2018-07-25T00:35:47.387Z,97108.33
2018-07-25T00:38:15.993Z,97109.35
2018-07-25T00:40:44.666Z,97103.51
2018-07-25T00:43:13.344Z,97101.88
2018-07-25T00:45:42.168Z,97106.44
2018-07-25T00:48:10.865Z,97108.20
2018-07-25T00:50:39.465Z,97103.55
2018-07-25T00:53:08.318Z,97103.92
2018-07-25T00:55:37.043Z,97107.30
2018-07-25T00:58:05.710Z,97101.84
2018-07-25T01:00:34.510Z,97102.89
2018-07-25T01:03:03.053Z,97105.95
2018-07-25T01:05:33.315Z,97103.84
2018-07-25T01:08:02.915Z,97102.42
2018-07-25T01:10:31.701Z,97100.09
2018-07-25T01:13:00.364Z,97099.77
2018-07-25T01:15:29.463Z,97104.66
2018-07-25T01:17:58.253Z,97104.42
2018-07-25T01:20:26.895Z,97101.62
2018-07-25T01:22:56.120Z,97109.13
2018-07-25T01:25:24.900Z,97110.03
2018-07-25T01:27:53.579Z,97101.37
2018-07-25T01:30:23.143Z,97110.66
2018-07-25T01:32:51.819Z,97115.30
2018-07-25T01:35:21.302Z,97108.98
2018-07-25T01:37:50.106Z,97108.72
2018-07-25T01:40:18.738Z,97114.22
2018-07-25T01:42:47.544Z,97115.97
2018-07-25T01:45:16.436Z,97119.03
2018-07-25T01:47:45.172Z,97119.59
2018-07-25T01:50:13.802Z,97111.19
2018-07-25T01:52:42.563Z,97111.28
2018-07-25T01:55:13.029Z,97115.49
2018-07-25T01:57:41.809Z,97120.05
2018-07-25T02:00:10.543Z,97122.14
2018-07-25T02:02:39.193Z,97126.45
2018-07-25T02:05:08.096Z,97127.05
2018-07-25T02:07:41.703Z,97117.83
2018-07-25T02:10:10.912Z,97119.81
2018-07-25T02:12:39.567Z,97124.86
2018-07-25T02:15:08.651Z,97123.52
2018-07-25T02:17:38.588Z,97127.98
2018-07-25T02:20:07.248Z,97129.73
2018-07-25T02:22:35.925Z,97128.88
2018-07-25T02:25:04.851Z,97129.11
2018-07-25T02:27:33.490Z,97132.28
2018-07-25T02:30:02.105Z,97129.46
2018-07-25T02:32:31.087Z,97130.38
2018-07-25T02:34:59.881Z,97135.28
2018-07-25T02:37:28.706Z,97133.42
2018-07-25T02:39:57.579Z,97134.02
2018-07-25T02:42:27.538Z,97134.14
2018-07-25T02:44:56.300Z,97133.87
2018-07-25T02:47:25.384Z,97133.30
2018-07-25T02:49:54.015Z,97137.70
2018-07-25T02:52:22.681Z,97135.87
2018-07-25T02:54:51.548Z,97137.73
2018-07-25T02:57:20.158Z,97135.52
2018-07-25T02:59:48.767Z,97132.34
2018-07-25T03:02:18.021Z,97138.91
2018-07-25T03:04:46.635Z,97134.84
2018-07-25T03:07:15.223Z,97142.52
2018-07-25T03:09:44.574Z,97139.02
2018-07-25T03:12:13.691Z,97146.02
2018-07-25T03:14:42.264Z,97139.02
2018-07-25T03:17:11.016Z,97142.17
2018-07-25T03:19:39.686Z,97142.75
2018-07-25T03:22:08.235Z,97143.19
2018-07-25T03:24:37.308Z,97142.13
2018-07-25T03:27:05.959Z,97144.17
2018-07-25T03:29:34.528Z,97150.38
2018-07-25T03:32:04.115Z,97154.14
2018-07-25T03:34:32.812Z,97154.36
2018-07-25T03:37:01.569Z,97156.43
2018-07-25T03:39:30.851Z,97164.58
2018-07-25T03:42:03.519Z,97165.44
2018-07-25T03:44:32.228Z,97167.86
2018-07-25T03:47:01.228Z,97167.90
2018-07-25T03:49:29.896Z,97172.35
2018-07-25T03:51:59.139Z,97178.84
2018-07-25T03:54:28.767Z,97179.91
2018-07-25T03:56:57.342Z,97177.39
2018-07-25T03:59:26.201Z,97181.02
2018-07-25T04:01:55.910Z,97185.38
2018-07-25T04:04:24.690Z,97182.13
2018-07-25T04:06:53.387Z,97182.73
2018-07-25T04:09:22.099Z,97186.45
2018-07-25T04:11:51.144Z,97186.13
2018-07-25T04:14:19.806Z,97183.34
2018-07-25T04:16:48.564Z,97191.38
2018-07-25T04:19:18.324Z,97191.74
2018-07-25T04:21:47.175Z,97187.56
2018-07-25T04:24:16.068Z,97193.05
2018-07-25T04:26:44.707Z,97194.70
2018-07-25T04:29:14.195Z,97191.98
2018-07-25T04:31:42.908Z,97192.15
2018-07-25T04:34:11.772Z,97192.11
2018-07-25T04:36:40.509Z,97190.00
2018-07-25T04:39:11.616Z,97194.36
2018-07-25T04:41:40.903Z,97194.17
2018-07-25T04:44:10.492Z,97195.06
2018-07-25T04:46:39.270Z,97204.89
2018-07-25T04:49:07.979Z,97205.38
2018-07-25T04:51:37.140Z,97209.36
2018-07-25T04:54:05.748Z,97203.37
2018-07-25T04:56:34.837Z,97205.48
2018-07-25T04:59:03.611Z,97207.35
2018-07-25T05:01:32.596Z,97211.26
2018-07-25T05:04:01.456Z,97209.59
2018-07-25T05:06:30.110Z,97206.84
2018-07-25T05:08:58.887Z,97211.49
2018-07-25T05:11:27.823Z,97214.11
2018-07-25T05:13:56.433Z,97216.60
2018-07-25T05:16:25.439Z,97210.80
2018-07-25T05:18:54.045Z,97203.78
2018-07-25T05:21:22.604Z,97208.69
2018-07-25T05:23:51.383Z,97213.13
2018-07-25T05:26:20.211Z,97210.45
2018-07-25T05:28:48.872Z,97204.59
2018-07-25T05:31:17.700Z,97209.13
2018-07-25T05:33:46.580Z,97215.14
2018-07-25T05:36:15.345Z,97214.97
2018-07-25T05:38:44.068Z,97214.56
2018-07-25T05:41:13.297Z,97215.96
2018-07-25T05:43:41.905Z,97225.66
2018-07-25T05:46:10.690Z,97226.53
2018-07-25T05:48:39.295Z,97224.74
2018-07-25T05:51:08.012Z,97231.33
2018-07-25T05:53:36.696Z,97230.51
2018-07-25T05:56:06.467Z,97233.30
2018-07-25T05:58:35.147Z,97229.92
2018-07-25T06:01:03.976Z,97236.32
2018-07-25T06:03:32.681Z,97231.83
2018-07-25T06:06:01.389Z,97231.47
2018-07-25T06:08:30.148Z,97232.14
2018-07-25T06:11:00.277Z,97237.09
2018-07-25T06:13:28.951Z,97237.20
2018-07-25T06:15:58.660Z,97238.16
2018-07-25T06:18:28.924Z,97238.80
2018-07-25T06:20:58.211Z,97241.66
2018-07-25T06:23:27.278Z,97240.22
2018-07-25T06:25:56.991Z,97237.98
2018-07-25T06:28:25.739Z,97238.39
2018-07-25T06:30:54.563Z,97241.13
2018-07-25T06:33:23.953Z,97238.52
2018-07-25T06:35:53.163Z,97240.84
2018-07-25T06:38:23.381Z,97240.35
2018-07-25T06:40:52.550Z,97237.41
2018-07-25T06:43:23.130Z,97239.23
2018-07-25T06:45:52.636Z,97243.75
2018-07-25T06:48:22.184Z,97245.84
2018-07-25T06:50:51.827Z,97244.30
2018-07-25T06:53:22.545Z,97248.63
2018-07-25T06:55:52.712Z,97244.08
2018-07-25T06:58:21.931Z,97247.80
2018-07-25T07:00:51.034Z,97248.14
2018-07-25T07:03:20.604Z,97253.16
2018-07-25T07:05:50.084Z,97252.70
2018-07-25T07:08:19.700Z,97256.11
2018-07-25T07:10:49.590Z,97257.58
2018-07-25T07:13:19.626Z,97258.75
2018-07-25T07:15:48.829Z,97261.78
2018-07-25T07:18:18.125Z,97257.90
2018-07-25T07:20:47.572Z,97257.84
2018-07-25T07:23:16.284Z,97257.13
2018-07-25T07:25:45.010Z,97255.74
2018-07-25T07:28:13.996Z,97258.22
2018-07-25T07:30:42.944Z,97259.53
2018-07-25T07:33:11.647Z,97256.77
2018-07-25T07:35:40.336Z,97265.42
2018-07-25T07:38:09.236Z,97257.43
2018-07-25T07:40:38.116Z,97259.20
2018-07-25T07:43:06.760Z,97262.33
2018-07-25T07:45:35.485Z,97262.99
2018-07-25T07:48:04.196Z,97261.34
2018-07-25T07:50:32.948Z,97255.17
2018-07-25T07:53:02.068Z,97262.91
2018-07-25T07:55:30.767Z,97262.77
2018-07-25T07:57:59.684Z,97256.14
2018-07-25T08:00:28.483Z,97262.50
2018-07-25T08:02:57.137Z,97259.93
2018-07-25T08:05:25.752Z,97260.00
2018-07-25T08:07:54.488Z,97262.13
2018-07-25T08:10:23.127Z,97265.63
2018-07-25T08:12:52.321Z,97260.76
2018-07-25T08:15:21.367Z,97259.34
2018-07-25T08:17:50.035Z,97259.78
2018-07-25T08:20:18.717Z,97251.17
2018-07-25T08:22:47.973Z,97251.53
2018-07-25T08:25:16.807Z,97259.93
2018-07-25T08:27:45.360Z,97262.08
2018-07-25T08:30:14.352Z,97259.33
2018-07-25T08:32:42.931Z,97256.78
2018-07-25T08:35:11.783Z,97263.68
2018-07-25T08:37:40.695Z,97264.14
2018-07-25T08:40:09.308Z,97265.85
2018-07-25T08:42:38.103Z,97263.86
2018-07-25T08:45:07.959Z,97268.55
2018-07-25T08:47:36.589Z,97265.11
2018-07-25T08:50:08.114Z,97268.48
2018-07-25T08:52:37.173Z,97264.03
2018-07-25T08:55:06.255Z,97267.22
2018-07-25T08:57:35.145Z,97271.84
2018-07-25T09:00:04.166Z,97268.55
2018-07-25T09:02:33.177Z,97270.59
2018-07-25T09:05:02.052Z,97270.57
2018-07-25T09:07:31.252Z,97269.25
2018-07-25T09:10:01.409Z,97265.64
2018-07-25T09:12:30.079Z,97264.39
2018-07-25T09:14:58.707Z,97268.63
2018-07-25T09:17:27.413Z,97266.64
2018-07-25T09:19:56.152Z,97267.48
2018-07-25T09:22:24.747Z,97266.42
2018-07-25T09:24:53.579Z,97268.25
2018-07-25T09:27:22.211Z,97269.45
2018-07-25T09:29:51.169Z,97261.23
2018-07-25T09:32:20.127Z,97262.43
2018-07-25T09:34:48.784Z,97260.19
2018-07-25T09:37:17.349Z,97265.47
2018-07-25T09:39:46.204Z,97263.45
2018-07-25T09:42:14.974Z,97264.14
2018-07-25T09:44:43.896Z,97259.42
2018-07-25T09:47:12.800Z,97248.03
2018-07-25T09:49:41.894Z,97255.80
2018-07-25T09:52:10.615Z,97252.77
2018-07-25T09:54:39.324Z,97255.83
2018-07-25T09:57:08.095Z,97257.11
2018-07-25T09:59:36.903Z,97246.42
2018-07-25T10:02:05.604Z,97246.91
2018-07-25T10:04:34.304Z,97250.17
2018-07-25T10:07:03.112Z,97251.00
2018-07-25T10:09:31.865Z,97250.20
2018-07-25T10:12:00.512Z,97241.09
2018-07-25T10:14:29.100Z,97243.25
2018-07-25T10:16:57.882Z,97248.33
2018-07-25T10:19:26.469Z,97246.08
2018-07-25T10:21:55.106Z,97246.03
2018-07-25T10:24:23.897Z,97247.41
2018-07-25T10:26:52.586Z,97233.63
2018-07-25T10:29:21.338Z,97237.33
2018-07-25T10:31:50.447Z,97229.05
2018-07-25T10:34:19.080Z,97227.31
2018-07-25T10:36:47.636Z,97221.99
2018-07-25T10:39:16.438Z,97231.92
2018-07-25T10:41:45.045Z,97232.30
2018-07-25T10:44:13.975Z,97227.73
2018-07-25T10:46:43.512Z,97225.62
2018-07-25T10:49:12.120Z,97226.39
2018-07-25T10:51:40.812Z,97224.24
2018-07-25T10:54:09.555Z,97222.03
2018-07-25T10:56:38.412Z,97225.77
2018-07-25T10:59:07.187Z,97218.89
2018-07-25T11:01:36.250Z,97213.98
2018-07-25T11:04:05.162Z,97216.91
2018-07-25T11:06:34.064Z,97214.05
2018-07-25T11:09:03.091Z,97213.88
2018-07-25T11:11:31.727Z,97215.30
2018-07-25T11:14:01.178Z,97215.59
2018-07-25T11:16:30.183Z,97214.40
2018-07-25T11:18:59.013Z,97203.45
2018-07-25T11:21:27.662Z,97204.58
2018-07-25T11:23:56.543Z,97200.58
2018-07-25T11:26:25.231Z,97204.11
2018-07-25T11:28:53.896Z,97205.70
2018-07-25T11:31:22.884Z,97203.20
2018-07-25T11:33:51.545Z,97204.52
2018-07-25T11:36:20.222Z,97203.16
2018-07-25T11:38:49.169Z,97201.06
2018-07-25T11:41:17.980Z,97194.88
2018-07-25T11:43:46.604Z,97189.09
2018-07-25T11:46:15.425Z,97187.70
2018-07-25T11:48:44.064Z,97188.47
2018-07-25T11:51:12.818Z,97186.34
2018-07-25T11:53:41.473Z,97187.53
2018-07-25T11:56:10.373Z,97185.99
2018-07-25T11:58:39.025Z,97186.66
2018-07-25T12:01:08.073Z,97187.97
2018-07-25T12:03:36.754Z,97186.85
2018-07-25T12:06:05.337Z,97184.47
2018-07-25T12:08:34.147Z,97180.09
2018-07-25T12:11:02.752Z,97178.13
2018-07-25T12:13:31.336Z,97179.41
2018-07-25T12:16:00.283Z,97184.97
2018-07-25T12:18:28.958Z,97179.75
2018-07-25T12:20:57.596Z,97182.22
2018-07-25T12:23:26.367Z,97183.45
2018-07-25T12:25:55.068Z,97177.70
2018-07-25T12:28:23.650Z,97171.13
2018-07-25T12:30:53.507Z,97169.78
2018-07-25T12:33:22.092Z,97180.37
2018-07-25T12:35:50.900Z,97160.08
2018-07-25T12:38:20.320Z,97162.52
2018-07-25T12:40:49.030Z,97152.17
2018-07-25T12:43:17.744Z,97160.16
2018-07-25T12:45:46.648Z,97161.47
2018-07-25T12:48:15.303Z,97157.83
2018-07-25T12:50:43.897Z,97163.67
2018-07-25T12:53:12.853Z,97157.16
2018-07-25T12:55:41.555Z,97162.16
2018-07-25T12:58:10.305Z,97155.67
2018-07-25T13:00:39.093Z,97153.45
2018-07-25T13:03:08.336Z,97148.45
2018-07-25T13:05:37.144Z,97145.70
2018-07-25T13:08:06.467Z,97143.70
2018-07-25T13:10:35.483Z,97143.77
2018-07-25T13:13:04.108Z,97144.20
2018-07-25T13:15:32.687Z,97136.33
2018-07-25T13:18:01.380Z,97140.45
2018-07-25T13:20:30.048Z,97140.12
2018-07-25T13:22:58.886Z,97133.47
2018-07-25T13:25:27.523Z,97130.45
2018-07-25T13:27:56.116Z,97123.98
2018-07-25T13:30:24.835Z,97135.34
2018-07-25T13:32:53.510Z,97121.89
2018-07-25T13:35:22.188Z,97135.98
2018-07-25T13:37:51.017Z,97126.48
2018-07-25T13:40:19.735Z,97117.23
2018-07-25T13:42:48.471Z,97119.13
2018-07-25T13:45:17.645Z,97121.67
2018-07-25T13:47:46.309Z,97119.97
2018-07-25T13:50:15.161Z,97123.72
2018-07-25T13:52:44.339Z,97120.19
2018-07-25T13:55:13.053Z,97115.45
2018-07-25T13:57:41.730Z,97106.28
2018-07-25T14:00:12.133Z,97103.69
2018-07-25T14:02:40.908Z,97105.69
2018-07-25T14:05:09.988Z,97107.69
2018-07-25T14:07:38.925Z,97107.42
2018-07-25T14:10:07.589Z,97099.06
2018-07-25T14:12:36.375Z,97096.31
2018-07-25T14:15:05.350Z,97096.55
2018-07-25T14:17:34.079Z,97095.72
2018-07-25T14:20:02.917Z,97093.48
2018-07-25T14:22:31.952Z,97092.14
2018-07-25T14:25:00.800Z,97093.25
2018-07-25T14:27:29.472Z,97095.89
2018-07-25T14:29:58.632Z,97086.78
2018-07-25T14:32:27.308Z,97084.55
2018-07-25T14:34:55.956Z,97088.37
2018-07-25T14:37:24.734Z,97082.78
2018-07-25T14:39:53.474Z,97082.87
2018-07-25T14:42:22.020Z,97088.70
2018-07-25T14:44:50.758Z,97083.97
2018-07-25T14:47:19.590Z,97088.69
2018-07-25T14:49:48.159Z,97087.97
2018-07-25T14:52:16.908Z,97088.95
2018-07-25T14:54:45.439Z,97094.20
2018-07-25T14:57:14.285Z,97088.55
2018-07-25T14:59:43.060Z,97091.33
2018-07-25T15:02:11.819Z,97088.81
2018-07-25T15:04:40.689Z,97090.03
2018-07-25T15:07:09.408Z,97093.67
2018-07-25T15:09:38.076Z,97093.96
2018-07-25T15:12:07.055Z,97096.55
2018-07-25T15:14:35.796Z,97091.38
2018-07-25T15:17:04.471Z,97092.80
2018-07-25T15:19:33.211Z,97086.59
2018-07-25T15:22:01.973Z,97086.49
2018-07-25T15:24:30.657Z,97086.81
2018-07-25T15:27:00.188Z,97083.43
2018-07-25T15:29:29.260Z,97081.98
2018-07-25T15:31:58.257Z,97083.20
2018-07-25T15:34:27.123Z,97080.36
2018-07-25T15:36:56.109Z,97087.76
2018-07-25T15:39:25.898Z,97085.70
2018-07-25T15:41:56.100Z,97081.67
2018-07-25T15:44:25.986Z,97078.69
2018-07-25T15:46:55.018Z,97076.59
2018-07-25T15:49:25.437Z,97078.38
2018-07-25T15:51:54.121Z,97074.45
2018-07-25T15:54:22.963Z,97075.51
2018-07-25T15:56:52.160Z,97070.97
2018-07-25T15:59:20.951Z,97072.95
2018-07-25T16:01:51.414Z,97066.83
2018-07-25T16:04:20.174Z,97065.86
2018-07-25T16:06:48.920Z,97057.58
2018-07-25T16:09:18.047Z,97056.26
2018-07-25T16:11:48.451Z,97054.30
2018-07-25T16:14:17.356Z,97049.59
2018-07-25T16:16:46.288Z,97048.59
2018-07-25T16:19:15.043Z,97052.25
2018-07-25T16:21:44.049Z,97048.63
2018-07-25T16:24:13.118Z,97046.94
2018-07-25T16:26:41.927Z,97040.67
2018-07-25T16:29:10.821Z,97040.52
2018-07-25T16:31:39.570Z,97035.18
2018-07-25T16:34:08.268Z,97033.98
2018-07-25T16:36:37.040Z,97032.73
2018-07-25T16:39:09.180Z,97024.15
2018-07-25T16:41:38.419Z,97029.36
2018-07-25T16:44:07.217Z,97029.31
2018-07-25T16:46:36.012Z,97031.86
2018-07-25T16:49:05.204Z,97034.58
2018-07-25T16:51:34.236Z,97037.04
2018-07-25T16:54:03.589Z,97036.95
2018-07-25T16:56:32.287Z,97036.05
2018-07-25T16:59:01.417Z,97036.53
2018-07-25T17:01:30.131Z,97039.75
2018-07-25T17:04:00.100Z,97042.21
2018-07-25T17:06:30.023Z,97042.86
2018-07-25T17:08:59.283Z,97045.35
2018-07-25T17:11:28.240Z,97045.45
2018-07-25T17:13:57.249Z,97045.64
2018-07-25T17:16:26.088Z,97045.59
2018-07-25T17:18:54.734Z,97046.84
2018-07-25T17:21:23.859Z,97036.70
2018-07-25T17:23:53.131Z,97047.92
2018-07-25T17:26:22.027Z,97046.23
2018-07-25T17:28:50.926Z,97044.15
2018-07-25T17:31:20.376Z,97044.55
2018-07-25T17:33:49.112Z,97042.41
2018-07-25T17:36:18.487Z,97042.88
2018-07-25T17:38:47.633Z,97053.47
2018-07-25T17:41:17.173Z,97052.56
2018-07-25T17:43:46.172Z,97051.75
2018-07-25T17:46:14.997Z,97053.56
2018-07-25T17:48:43.941Z,97051.25
2018-07-25T17:51:12.807Z,97055.05
2018-07-25T17:53:41.809Z,97056.08
2018-07-25T17:56:10.552Z,97051.92
2018-07-25T17:58:39.341Z,97057.77
2018-07-25T18:01:08.385Z,97061.51
2018-07-25T18:03:37.144Z,97067.16
2018-07-25T18:06:06.168Z,97066.54
2018-07-25T18:08:35.463Z,97071.03
2018-07-25T18:11:04.432Z,97067.89
2018-07-25T18:13:38.466Z,97072.13
2018-07-25T18:16:07.329Z,97081.37
2018-07-25T18:18:36.126Z,97088.22
2018-07-25T18:21:05.167Z,97094.84
2018-07-25T18:23:33.988Z,97099.56
2018-07-25T18:26:03.230Z,97104.23
2018-07-25T18:28:32.347Z,97102.79
2018-07-25T18:31:01.216Z,97101.27
2018-07-25T18:33:30.481Z,97106.38
2018-07-25T18:35:59.384Z,97114.97
2018-07-25T18:38:28.172Z,97115.55
2018-07-25T18:40:56.846Z,97117.91
2018-07-25T18:43:26.685Z,97119.45
2018-07-25T18:45:56.629Z,97127.62
2018-07-25T18:48:26.514Z,97128.92
2018-07-25T18:50:56.608Z,97127.09
2018-07-25T18:53:26.599Z,97128.28
2018-07-25T18:55:55.474Z,97130.08
2018-07-25T18:58:24.975Z,97124.55
2018-07-25T19:00:54.028Z,97131.59
2018-07-25T19:03:22.909Z,97132.38
2018-07-25T19:05:51.637Z,97129.39
2018-07-25T19:08:20.692Z,97133.57
2018-07-25T19:10:49.568Z,97129.45
2018-07-25T19:13:23.599Z,97125.56
2018-07-25T19:15:52.412Z,97120.83
2018-07-25T19:18:21.565Z,97118.44
2018-07-25T19:20:50.600Z,97122.87
2018-07-25T19:23:19.373Z,97120.04
2018-07-25T19:25:48.990Z,97125.36
2018-07-25T19:28:19.502Z,97117.78
2018-07-25T19:30:48.372Z,97122.28
2018-07-25T19:33:17.163Z,97120.58
2018-07-25T19:35:46.164Z,97126.02
2018-07-25T19:38:15.352Z,97127.16
2018-07-25T19:40:44.219Z,97122.65
2018-07-25T19:43:13.278Z,97120.58
2018-07-25T19:45:42.971Z,97128.33
2018-07-25T19:48:11.748Z,97134.08
2018-07-25T19:50:41.149Z,97134.97
2018-07-25T19:53:09.795Z,97136.20
2018-07-25T19:55:38.615Z,97137.88
2018-07-25T19:58:07.372Z,97137.13
2018-07-25T20:00:36.038Z,97139.00
2018-07-25T20:03:05.102Z,97135.30
2018-07-25T20:05:33.825Z,97138.74
2018-07-25T20:08:03.174Z,97136.19
2018-07-25T20:10:32.189Z,97133.14
2018-07-25T20:13:00.912Z,97141.16
2018-07-25T20:15:35.323Z,97141.83
2018-07-25T20:18:04.539Z,97139.87
2018-07-25T20:20:33.485Z,97144.59
2018-07-25T20:23:02.259Z,97144.78
2018-07-25T20:25:31.297Z,97145.75
2018-07-25T20:27:59.918Z,97147.87
2018-07-25T20:30:28.716Z,97148.02
2018-07-25T20:32:57.881Z,97147.72
2018-07-25T20:35:26.591Z,97149.66
2018-07-25T20:37:55.770Z,97148.69
2018-07-25T20:40:24.806Z,97148.55
2018-07-25T20:42:53.659Z,97150.84
2018-07-25T20:45:22.555Z,97153.59
2018-07-25T20:47:51.616Z,97153.62
2018-07-25T20:50:20.481Z,97161.59
2018-07-25T20:52:49.801Z,97155.27
2018-07-25T20:55:18.585Z,97156.56
2018-07-25T20:57:47.367Z,97160.80
2018-07-25T21:00:16.480Z,97163.73
2018-07-25T21:02:45.349Z,97163.58
2018-07-25T21:05:14.075Z,97170.59
2018-07-25T21:07:42.895Z,97167.83
2018-07-25T21:10:11.827Z,97166.83
2018-07-25T21:12:40.518Z,97174.30
2018-07-25T21:15:09.131Z,97170.58
2018-07-25T21:17:38.807Z,97175.77
2018-07-25T21:20:07.972Z,97177.41
2018-07-25T21:22:37.097Z,97179.84
2018-07-25T21:25:06.318Z,97174.33
2018-07-25T21:27:35.054Z,97172.52
2018-07-25T21:30:03.977Z,97173.17
2018-07-25T21:32:33.325Z,97181.13
2018-07-25T21:35:02.442Z,97172.20
2018-07-25T21:37:31.410Z,97176.26
2018-07-25T21:40:00.125Z,97176.91
2018-07-25T21:42:28.929Z,97170.73
2018-07-25T21:44:57.663Z,97174.92
2018-07-25T21:47:26.817Z,97177.41
2018-07-25T21:49:55.707Z,97177.52
2018-07-25T21:52:24.400Z,97176.73
2018-07-25T21:54:53.190Z,97184.70
2018-07-25T21:57:22.087Z,97183.77
2018-07-25T21:59:50.818Z,97182.70
2018-07-25T22:02:20.384Z,97182.64
2018-07-25T22:04:49.120Z,97186.65
2018-07-25T22:07:17.745Z,97178.23
2018-07-25T22:09:46.788Z,97186.20
2018-07-25T22:12:15.412Z,97183.43
2018-07-25T22:14:44.029Z,97179.37
2018-07-25T22:17:13.279Z,97182.41
2018-07-25T22:19:41.914Z,97180.80
2018-07-25T22:22:10.613Z,97179.64
2018-07-25T22:24:39.275Z,97177.53
2018-07-25T22:27:08.396Z,97176.81
2018-07-25T22:29:37.061Z,97178.28
2018-07-25T22:32:05.996Z,97174.42
2018-07-25T22:34:34.643Z,97174.35
2018-07-25T22:37:03.248Z,97175.75
2018-07-25T22:39:32.475Z,97175.36
2018-07-25T22:42:01.119Z,97182.77
2018-07-25T22:44:30.900Z,97180.78
2018-07-25T22:46:59.527Z,97179.31
2018-07-25T22:49:28.197Z,97176.84
2018-07-25T22:51:57.040Z,97173.25
2018-07-25T22:54:26.072Z,97170.09
2018-07-25T22:56:54.664Z,97173.29
2018-07-25T22:59:23.344Z,97175.66
2018-07-25T23:01:53.028Z,97173.19
2018-07-25T23:04:21.750Z,97176.67
2018-07-25T23:06:50.425Z,97178.61
2018-07-25T23:09:19.568Z,97179.63
2018-07-25T23:11:48.268Z,97176.11
2018-07-25T23:14:17.062Z,97187.12
2018-07-25T23:16:45.932Z,97181.56
2018-07-25T23:19:14.796Z,97183.45
2018-07-25T23:21:43.707Z,97184.81
2018-07-25T23:24:12.504Z,97180.98
2018-07-25T23:26:41.272Z,97180.97
2018-07-25T23:29:10.096Z,97183.92
2018-07-25T23:31:39.307Z,97190.80
2018-07-25T23:34:08.243Z,97178.87
2018-07-25T23:36:37.136Z,97184.11
2018-07-25T23:39:09.628Z,97188.89
2018-07-25T23:41:38.529Z,97184.77
2018-07-25T23:44:07.389Z,97187.27
2018-07-25T23:46:36.507Z,97183.33
2018-07-25T23:49:05.371Z,97179.07
2018-07-25T23:51:34.766Z,97177.77
2018-07-25T23:54:04.720Z,97176.14
2018-07-25T23:56:33.424Z,97175.38
2018-07-25T23:59:02.053Z,97177.27
